Time;durP1;ratioP1;P1;durP2;ratioP2;P2;SDS_P1;SDS_P2;PMS_P1;PMS_P2;Temp;Humidity;BMP_temperature;BMP_pressure;BME280_temperature;BME280_humidity;BME280_pressure;Samples;Min_cycle;Max_cycle;Signal;HPM_P1;HPM_P2
2021/12/09 00:00:10;;;;;;;19.45;2.90;;;;;;;;;;5093943;28;20076;-62
2021/12/09 00:02:38;;;;;;;16.60;3.42;;;;;;;;;;5095650;28;20032;-62
2021/12/09 00:05:05;;;;;;;19.15;3.63;;;;;;;;;;5092988;28;20063;-64
2021/12/09 00:07:31;;;;;;;18.70;2.83;;;;;;;;;;5095539;28;20031;-63
2021/12/09 00:09:57;;;;;;;23.23;2.88;;;;;;;;;;5106454;28;20428;-63
2021/12/09 00:12:24;;;;;;;16.13;2.63;;;;;;;;;;5100350;28;20022;-63
2021/12/09 00:14:51;;;;;;;13.55;2.50;;;;;;;;;;5090589;28;20036;-63
2021/12/09 00:17:17;;;;;;;15.63;2.25;;;;;;;;;;5096532;28;20063;-63
2021/12/09 00:19:43;;;;;;;20.75;2.30;;;;;;;;;;5095025;28;20056;-63
2021/12/09 00:22:12;;;;;;;12.90;2.95;;;;;;;;;;5104814;28;20032;-63
2021/12/09 00:24:38;;;;;;;19.98;2.53;;;;;;;;;;5094056;28;20028;-63
2021/12/09 00:27:05;;;;;;;18.50;3.00;;;;;;;;;;5109286;28;20433;-64
2021/12/09 00:29:31;;;;;;;13.98;2.53;;;;;;;;;;5111187;28;20393;-64
2021/12/09 00:31:57;;;;;;;13.10;2.78;;;;;;;;;;5096431;28;20031;-64
2021/12/09 00:34:31;;;;;;;18.05;4.20;;;;;;;;;;5100908;28;20413;-64
2021/12/09 00:37:03;;;;;;;22.30;2.92;;;;;;;;;;5097168;28;20048;-64
2021/12/09 00:39:29;;;;;;;13.00;3.13;;;;;;;;;;5096298;28;20089;-63
2021/12/09 00:41:56;;;;;;;15.93;2.10;;;;;;;;;;5105281;28;20396;-64
2021/12/09 00:44:22;;;;;;;11.38;3.15;;;;;;;;;;5078899;28;20427;-63
2021/12/09 00:46:48;;;;;;;17.63;3.00;;;;;;;;;;5073207;28;20484;-64
2021/12/09 00:49:14;;;;;;;12.57;2.45;;;;;;;;;;5072870;28;20043;-63
2021/12/09 00:51:40;;;;;;;20.80;2.88;;;;;;;;;;5073146;28;20089;-64
2021/12/09 00:54:06;;;;;;;14.90;2.72;;;;;;;;;;5072915;28;20028;-64
2021/12/09 00:56:33;;;;;;;16.15;2.95;;;;;;;;;;5072771;28;20158;-64
2021/12/09 00:59:00;;;;;;;15.23;2.75;;;;;;;;;;5074166;28;20028;-64
2021/12/09 01:01:26;;;;;;;21.70;2.95;;;;;;;;;;5092751;28;20032;-64
2021/12/09 01:03:52;;;;;;;20.27;3.40;;;;;;;;;;5093127;28;20124;-64
2021/12/09 01:06:18;;;;;;;18.15;2.90;;;;;;;;;;5075794;28;20020;-63
2021/12/09 01:08:44;;;;;;;14.00;2.78;;;;;;;;;;5087381;28;20032;-63
2021/12/09 01:11:12;;;;;;;15.40;2.55;;;;;;;;;;5074990;28;20028;-63
2021/12/09 01:13:38;;;;;;;16.00;3.05;;;;;;;;;;5085583;28;20488;-63
2021/12/09 01:16:05;;;;;;;17.20;3.00;;;;;;;;;;5075912;28;20564;-63
2021/12/09 01:18:31;;;;;;;25.98;5.45;;;;;;;;;;5072835;28;20026;-64
2021/12/09 01:20:57;;;;;;;26.95;3.38;;;;;;;;;;5080292;28;20140;-64
2021/12/09 01:23:23;;;;;;;13.85;2.67;;;;;;;;;;5081281;28;20047;-63
2021/12/09 01:25:57;;;;;;;25.65;3.78;;;;;;;;;;5073005;28;20040;-64
2021/12/09 01:28:24;;;;;;;15.88;2.45;;;;;;;;;;5088298;28;20032;-64
2021/12/09 01:30:51;;;;;;;20.45;3.50;;;;;;;;;;5078858;28;20032;-64
2021/12/09 01:33:18;;;;;;;14.82;2.78;;;;;;;;;;5080122;28;20055;-64
2021/12/09 01:35:48;;;;;;;14.35;2.88;;;;;;;;;;5086035;28;20016;-63
2021/12/09 01:38:16;;;;;;;15.38;2.33;;;;;;;;;;5075293;28;20036;-63
2021/12/09 01:40:42;;;;;;;10.77;1.98;;;;;;;;;;5087437;28;20085;-63
2021/12/09 01:43:08;;;;;;;10.77;2.10;;;;;;;;;;5081413;28;20111;-63
2021/12/09 01:45:35;;;;;;;10.40;2.22;;;;;;;;;;5073607;28;20580;-63
2021/12/09 01:48:01;;;;;;;9.88;1.73;;;;;;;;;;5087767;28;20051;-64
2021/12/09 01:50:27;;;;;;;15.30;1.80;;;;;;;;;;5090512;28;20024;-64
2021/12/09 01:52:53;;;;;;;7.93;1.60;;;;;;;;;;5085386;28;20024;-64
2021/12/09 01:55:20;;;;;;;10.85;1.30;;;;;;;;;;5088930;28;20028;-64
2021/12/09 01:57:48;;;;;;;15.77;1.85;;;;;;;;;;5092355;28;20036;-64
2021/12/09 02:00:16;;;;;;;10.52;1.42;;;;;;;;;;5082014;28;20086;-64
2021/12/09 02:02:42;;;;;;;10.95;1.65;;;;;;;;;;5088138;28;20032;-64
2021/12/09 02:05:10;;;;;;;9.00;2.25;;;;;;;;;;5086583;28;20460;-64
2021/12/09 02:07:36;;;;;;;9.30;1.80;;;;;;;;;;5098405;28;20035;-64
2021/12/09 02:10:07;;;;;;;17.05;2.13;;;;;;;;;;5083015;28;20056;-64
2021/12/09 02:12:34;;;;;;;11.63;2.05;;;;;;;;;;5095151;28;20017;-64
2021/12/09 02:15:01;;;;;;;5.28;0.82;;;;;;;;;;5085991;28;20120;-64
2021/12/09 02:17:28;;;;;;;2.80;0.90;;;;;;;;;;5085030;28;20038;-63
2021/12/09 02:19:57;;;;;;;8.23;1.08;;;;;;;;;;5093398;28;20373;-63
2021/12/09 02:22:23;;;;;;;3.67;0.90;;;;;;;;;;5081589;28;20035;-63
2021/12/09 02:24:49;;;;;;;4.70;0.90;;;;;;;;;;5093383;28;20024;-63
2021/12/09 02:27:15;;;;;;;2.78;0.75;;;;;;;;;;5087325;28;20040;-63
2021/12/09 02:29:41;;;;;;;9.85;1.38;;;;;;;;;;5089798;28;20023;-64
2021/12/09 02:32:08;;;;;;;7.03;0.77;;;;;;;;;;5083001;28;20131;-64
2021/12/09 02:34:34;;;;;;;5.53;1.23;;;;;;;;;;5081499;28;20012;-64
2021/12/09 02:37:03;;;;;;;4.53;0.85;;;;;;;;;;5091700;28;20044;-63
2021/12/09 02:39:29;;;;;;;7.88;2.30;;;;;;;;;;5088619;28;20024;-63
2021/12/09 02:41:55;;;;;;;9.32;1.27;;;;;;;;;;5092886;28;20434;-63
2021/12/09 02:44:22;;;;;;;4.00;0.88;;;;;;;;;;5087870;28;20031;-63
2021/12/09 02:46:50;;;;;;;11.05;1.83;;;;;;;;;;5098158;28;20039;-64
2021/12/09 02:49:17;;;;;;;6.50;1.00;;;;;;;;;;5089823;28;20523;-63
2021/12/09 02:51:45;;;;;;;4.03;1.10;;;;;;;;;;5090594;28;20338;-63
2021/12/09 02:54:12;;;;;;;5.93;1.17;;;;;;;;;;5098233;28;20089;-63
2021/12/09 02:56:39;;;;;;;10.40;1.48;;;;;;;;;;5081897;28;20380;-63
2021/12/09 02:59:06;;;;;;;11.02;1.83;;;;;;;;;;5092360;28;20016;-63
2021/12/09 03:01:34;;;;;;;4.90;1.30;;;;;;;;;;5094878;28;20028;-63
2021/12/09 03:04:02;;;;;;;6.50;1.35;;;;;;;;;;5091868;28;20043;-63
2021/12/09 03:06:33;;;;;;;5.88;1.77;;;;;;;;;;5085919;28;20028;-63
2021/12/09 03:09:04;;;;;;;8.52;1.10;;;;;;;;;;5080418;28;20028;-63
2021/12/09 03:11:30;;;;;;;7.30;1.55;;;;;;;;;;5091409;28;20028;-63
2021/12/09 03:13:57;;;;;;;7.65;1.20;;;;;;;;;;5080608;28;20045;-63
2021/12/09 03:16:23;;;;;;;10.30;2.58;;;;;;;;;;5090388;28;20020;-63
2021/12/09 03:18:51;;;;;;;14.27;1.45;;;;;;;;;;5094684;28;20062;-63
2021/12/09 03:21:37;;;;;;;15.40;1.80;;;;;;;;;;5078152;28;20025;-63
2021/12/09 03:24:05;;;;;;;12.80;1.77;;;;;;;;;;5075117;28;20111;-64
2021/12/09 03:26:34;;;;;;;17.27;1.70;;;;;;;;;;5084691;28;20464;-63
2021/12/09 03:29:05;;;;;;;9.10;1.65;;;;;;;;;;5080370;28;20036;-63
2021/12/09 03:31:32;;;;;;;12.27;1.73;;;;;;;;;;5080497;28;20525;-63
2021/12/09 03:33:58;;;;;;;10.98;1.83;;;;;;;;;;5074802;28;20109;-63
2021/12/09 03:36:28;;;;;;;12.18;1.85;;;;;;;;;;5076716;28;20041;-63
2021/12/09 03:38:54;;;;;;;22.27;2.42;;;;;;;;;;5087424;28;20024;-63
2021/12/09 03:41:21;;;;;;;14.45;1.75;;;;;;;;;;5080850;28;20028;-63
2021/12/09 03:43:47;;;;;;;16.08;2.28;;;;;;;;;;5090960;28;20032;-63
2021/12/09 03:46:13;;;;;;;13.85;2.30;;;;;;;;;;5078315;28;20016;-63
2021/12/09 03:48:39;;;;;;;7.63;1.92;;;;;;;;;;5074289;28;20465;-63
2021/12/09 03:51:06;;;;;;;17.10;2.30;;;;;;;;;;5074573;28;20029;-63
2021/12/09 03:53:32;;;;;;;20.77;3.72;;;;;;;;;;5090497;28;20414;-63
2021/12/09 03:55:58;;;;;;;12.23;2.20;;;;;;;;;;5079146;28;20028;-63
2021/12/09 03:58:24;;;;;;;21.00;1.98;;;;;;;;;;5084979;28;20441;-63
2021/12/09 04:00:51;;;;;;;14.73;2.10;;;;;;;;;;5086486;28;20074;-63
2021/12/09 04:03:18;;;;;;;12.73;2.08;;;;;;;;;;5093970;28;20111;-63
2021/12/09 04:05:45;;;;;;;11.48;1.73;;;;;;;;;;5087704;28;20119;-63
2021/12/09 04:08:12;;;;;;;10.88;2.10;;;;;;;;;;5074128;28;20419;-63
2021/12/09 04:10:38;;;;;;;13.15;2.17;;;;;;;;;;5083932;28;20038;-63
2021/12/09 04:13:04;;;;;;;6.93;1.90;;;;;;;;;;5079935;28;20035;-63
2021/12/09 04:15:30;;;;;;;14.05;1.92;;;;;;;;;;5089853;28;20160;-63
2021/12/09 04:17:56;;;;;;;7.05;1.83;;;;;;;;;;5078532;28;20373;-63
2021/12/09 04:20:23;;;;;;;10.85;2.10;;;;;;;;;;5083046;28;20033;-63
2021/12/09 04:22:49;;;;;;;13.73;1.90;;;;;;;;;;5073854;28;20436;-63
2021/12/09 04:25:25;;;;;;;19.38;2.97;;;;;;;;;;5073741;28;20029;-63
2021/12/09 04:27:53;;;;;;;10.70;1.70;;;;;;;;;;5073511;28;20047;-63
2021/12/09 04:30:19;;;;;;;13.18;2.20;;;;;;;;;;5074657;28;20021;-63
2021/12/09 04:32:46;;;;;;;10.88;1.67;;;;;;;;;;5083224;28;20109;-63
2021/12/09 04:35:12;;;;;;;11.00;1.77;;;;;;;;;;5092796;28;20111;-63
2021/12/09 04:37:39;;;;;;;12.98;1.92;;;;;;;;;;5092693;28;20514;-63
2021/12/09 04:40:07;;;;;;;8.88;1.73;;;;;;;;;;5088842;28;20028;-63
2021/12/09 04:42:33;;;;;;;11.50;2.90;;;;;;;;;;5092937;28;20032;-63
2021/12/09 04:44:59;;;;;;;11.73;1.77;;;;;;;;;;5093269;28;20592;-64
2021/12/09 04:47:25;;;;;;;14.05;2.80;;;;;;;;;;5092705;28;20476;-63
2021/12/09 04:49:51;;;;;;;15.75;2.47;;;;;;;;;;5076379;28;20107;-63
2021/12/09 04:52:17;;;;;;;9.63;1.80;;;;;;;;;;5085923;28;20062;-63
2021/12/09 04:54:44;;;;;;;12.23;2.58;;;;;;;;;;5092489;28;20043;-63
2021/12/09 04:57:11;;;;;;;13.02;2.35;;;;;;;;;;5087454;28;20033;-63
2021/12/09 04:59:37;;;;;;;15.68;2.00;;;;;;;;;;5076118;28;20423;-63
2021/12/09 05:02:03;;;;;;;22.10;2.97;;;;;;;;;;5088046;28;20545;-63
2021/12/09 05:04:29;;;;;;;16.38;2.25;;;;;;;;;;5081082;28;20507;-63
2021/12/09 05:06:56;;;;;;;13.13;1.75;;;;;;;;;;5062789;28;20021;-63
2021/12/09 05:09:23;;;;;;;10.65;1.88;;;;;;;;;;5089152;28;20403;-63
2021/12/09 05:11:49;;;;;;;11.05;2.20;;;;;;;;;;5091351;28;20040;-63
2021/12/09 05:14:16;;;;;;;7.95;2.75;;;;;;;;;;5086407;28;20009;-63
2021/12/09 05:16:43;;;;;;;8.50;1.83;;;;;;;;;;5080913;28;20111;-63
2021/12/09 05:19:09;;;;;;;12.82;2.05;;;;;;;;;;5078541;28;20051;-63
2021/12/09 05:21:39;;;;;;;8.95;1.65;;;;;;;;;;5091207;28;20074;-63
2021/12/09 05:24:06;;;;;;;7.85;1.73;;;;;;;;;;5077676;28;20016;-63
2021/12/09 05:26:39;;;;;;;7.38;2.47;;;;;;;;;;5064995;28;20024;-63
2021/12/09 05:29:06;;;;;;;14.55;1.45;;;;;;;;;;5085857;28;20028;-63
2021/12/09 05:34:17;;;;;;;6.10;2.05;;;;;;;;;;5086079;28;20642;-63
2021/12/09 05:36:43;;;;;;;9.43;1.73;;;;;;;;;;5081981;28;20044;-63
2021/12/09 05:39:13;;;;;;;8.20;1.77;;;;;;;;;;5079241;28;20063;-63
2021/12/09 05:41:39;;;;;;;9.68;2.05;;;;;;;;;;5088407;28;20032;-63
2021/12/09 05:44:06;;;;;;;11.35;1.85;;;;;;;;;;5072598;28;20051;-63
2021/12/09 05:46:34;;;;;;;5.63;1.70;;;;;;;;;;5080518;28;20136;-63
2021/12/09 05:49:00;;;;;;;12.40;1.63;;;;;;;;;;5080167;28;20107;-63
2021/12/09 05:51:26;;;;;;;5.85;1.65;;;;;;;;;;5090520;28;20036;-63
2021/12/09 05:53:53;;;;;;;14.63;2.25;;;;;;;;;;5089051;28;20024;-63
2021/12/09 05:56:19;;;;;;;8.00;1.85;;;;;;;;;;5078608;28;20036;-63
2021/12/09 05:58:45;;;;;;;8.18;1.60;;;;;;;;;;5079494;28;20021;-63
2021/12/09 06:01:11;;;;;;;10.23;2.08;;;;;;;;;;5090762;28;20031;-63
2021/12/09 06:03:38;;;;;;;6.50;1.77;;;;;;;;;;5083852;28;20028;-63
2021/12/09 06:06:04;;;;;;;15.40;2.67;;;;;;;;;;5090261;28;20032;-63
2021/12/09 06:08:30;;;;;;;16.60;2.58;;;;;;;;;;5085374;28;20404;-63
2021/12/09 06:10:59;;;;;;;11.77;1.40;;;;;;;;;;5081465;28;20469;-63
2021/12/09 06:13:26;;;;;;;5.80;1.13;;;;;;;;;;5086663;28;20013;-63
2021/12/09 06:15:52;;;;;;;9.57;1.50;;;;;;;;;;5088323;28;20047;-63
2021/12/09 06:18:18;;;;;;;9.82;1.63;;;;;;;;;;5090599;28;20028;-63
2021/12/09 06:20:44;;;;;;;9.85;1.65;;;;;;;;;;5088280;28;20036;-63
2021/12/09 06:23:11;;;;;;;11.00;1.73;;;;;;;;;;5078804;28;20035;-63
2021/12/09 06:25:37;;;;;;;4.68;1.42;;;;;;;;;;5080103;28;20169;-63
2021/12/09 06:28:03;;;;;;;10.20;2.33;;;;;;;;;;5080612;28;21457;-63
2021/12/09 06:30:29;;;;;;;10.93;1.70;;;;;;;;;;5084242;28;20033;-63
2021/12/09 06:32:55;;;;;;;11.57;3.03;;;;;;;;;;5086703;28;20021;-63
2021/12/09 06:35:22;;;;;;;6.50;1.50;;;;;;;;;;5084618;28;20035;-63
2021/12/09 06:37:48;;;;;;;11.07;1.95;;;;;;;;;;5090049;28;20032;-63
2021/12/09 06:40:19;;;;;;;11.05;1.80;;;;;;;;;;5087550;28;20059;-63
2021/12/09 06:42:45;;;;;;;3.45;1.23;;;;;;;;;;5082722;28;20035;-63
2021/12/09 06:45:13;;;;;;;9.75;1.90;;;;;;;;;;5089124;28;20016;-63
2021/12/09 06:47:40;;;;;;;12.65;2.10;;;;;;;;;;5092132;28;20040;-63
2021/12/09 06:50:07;;;;;;;10.82;1.75;;;;;;;;;;5084841;28;20058;-63
2021/12/09 06:52:33;;;;;;;7.20;1.55;;;;;;;;;;5083153;28;20036;-63
2021/12/09 06:54:59;;;;;;;9.80;2.00;;;;;;;;;;5083692;28;20024;-63
2021/12/09 06:57:26;;;;;;;6.80;1.98;;;;;;;;;;5081348;28;20077;-63
2021/12/09 06:59:52;;;;;;;14.07;1.95;;;;;;;;;;5092601;28;20032;-63
2021/12/09 07:02:18;;;;;;;9.68;2.15;;;;;;;;;;5077388;28;20064;-63
2021/12/09 07:04:44;;;;;;;11.93;2.08;;;;;;;;;;5086596;28;20020;-63
2021/12/09 07:07:10;;;;;;;10.18;1.95;;;;;;;;;;5090168;28;20082;-63
2021/12/09 07:09:38;;;;;;;9.05;2.22;;;;;;;;;;5081651;28;20484;-71
2021/12/09 07:12:04;;;;;;;9.07;2.13;;;;;;;;;;5087950;28;20078;-64
2021/12/09 07:14:30;;;;;;;12.95;2.10;;;;;;;;;;5082067;28;20023;-64
2021/12/09 07:16:56;;;;;;;8.73;2.10;;;;;;;;;;5077000;28;20032;-64
2021/12/09 07:19:22;;;;;;;8.95;1.92;;;;;;;;;;5085742;28;20028;-64
2021/12/09 07:21:49;;;;;;;10.75;2.35;;;;;;;;;;5077652;28;20499;-64
2021/12/09 07:24:15;;;;;;;6.00;1.70;;;;;;;;;;5088479;28;20023;-64
2021/12/09 07:26:41;;;;;;;10.32;2.90;;;;;;;;;;5085174;28;20036;-64
2021/12/09 07:29:07;;;;;;;8.95;2.33;;;;;;;;;;5083779;28;20025;-64
2021/12/09 07:31:33;;;;;;;10.68;1.83;;;;;;;;;;5083156;28;20492;-64
2021/12/09 07:34:00;;;;;;;7.53;1.83;;;;;;;;;;5083136;28;20093;-64
2021/12/09 07:36:27;;;;;;;4.35;1.50;;;;;;;;;;5081280;28;20068;-66
2021/12/09 07:38:54;;;;;;;7.47;2.15;;;;;;;;;;5069131;28;20085;-65
2021/12/09 07:41:21;;;;;;;11.00;2.20;;;;;;;;;;5083741;28;20040;-65
2021/12/09 07:43:49;;;;;;;15.80;3.50;;;;;;;;;;5087232;28;20027;-65
2021/12/09 07:46:16;;;;;;;11.45;1.90;;;;;;;;;;5081445;28;20031;-65
2021/12/09 07:48:42;;;;;;;8.43;2.13;;;;;;;;;;5083877;28;20038;-65
2021/12/09 07:51:08;;;;;;;11.32;2.17;;;;;;;;;;5075988;28;20449;-65
2021/12/09 07:53:34;;;;;;;5.50;1.80;;;;;;;;;;5085033;28;20043;-65
2021/12/09 07:56:00;;;;;;;8.73;2.70;;;;;;;;;;5081874;28;20090;-65
2021/12/09 07:58:28;;;;;;;10.80;1.45;;;;;;;;;;5083732;28;20063;-65
2021/12/09 08:00:54;;;;;;;5.90;1.83;;;;;;;;;;5078974;28;20438;-65
2021/12/09 08:03:20;;;;;;;7.13;1.70;;;;;;;;;;5084100;28;20035;-65
2021/12/09 08:05:48;;;;;;;6.72;1.85;;;;;;;;;;5080191;28;20035;-65
2021/12/09 08:08:14;;;;;;;10.60;3.38;;;;;;;;;;5080927;28;20078;-65
2021/12/09 08:10:41;;;;;;;13.80;5.05;;;;;;;;;;5085041;28;20204;-65
2021/12/09 08:13:08;;;;;;;26.42;5.97;;;;;;;;;;5088477;28;20020;-65
2021/12/09 08:15:38;;;;;;;20.17;5.13;;;;;;;;;;5081068;28;20444;-65
2021/12/09 08:21:01;;;;;;;17.20;3.45;;;;;;;;;;5073672;28;20561;-65
2021/12/09 08:23:28;;;;;;;13.93;3.13;;;;;;;;;;5082624;28;20489;-65
2021/12/09 08:25:56;;;;;;;11.75;3.97;;;;;;;;;;5082219;28;20111;-65
2021/12/09 08:28:23;;;;;;;15.68;3.00;;;;;;;;;;5081540;28;20024;-65
2021/12/09 08:30:51;;;;;;;12.65;3.30;;;;;;;;;;5083234;28;20031;-65
2021/12/09 08:33:18;;;;;;;9.75;2.65;;;;;;;;;;5080540;28;20016;-65
2021/12/09 08:35:44;;;;;;;20.63;3.40;;;;;;;;;;5075931;28;20109;-65
2021/12/09 08:38:11;;;;;;;13.68;2.97;;;;;;;;;;5087928;28;20028;-65
2021/12/09 08:40:37;;;;;;;8.98;2.65;;;;;;;;;;5084681;28;20063;-64
2021/12/09 08:43:04;;;;;;;20.75;3.00;;;;;;;;;;5087521;28;20101;-65
2021/12/09 08:45:30;;;;;;;12.57;3.10;;;;;;;;;;5079528;28;20752;-65
2021/12/09 08:47:56;;;;;;;12.15;2.53;;;;;;;;;;5089572;28;20026;-65
2021/12/09 08:50:24;;;;;;;12.15;3.00;;;;;;;;;;5089769;28;20016;-65
2021/12/09 08:52:51;;;;;;;7.97;2.13;;;;;;;;;;5082045;28;20027;-65
2021/12/09 08:55:18;;;;;;;15.40;2.85;;;;;;;;;;5071717;28;20135;-65
2021/12/09 08:57:46;;;;;;;9.95;4.07;;;;;;;;;;5088642;28;20476;-65
2021/12/09 09:00:13;;;;;;;11.57;3.53;;;;;;;;;;5091650;28;20046;-65
2021/12/09 09:02:40;;;;;;;17.92;3.10;;;;;;;;;;5088937;28;20662;-65
2021/12/09 09:05:10;;;;;;;5.80;2.35;;;;;;;;;;5080020;28;20020;-65
2021/12/09 09:07:37;;;;;;;14.98;2.80;;;;;;;;;;5081623;28;20040;-65
2021/12/09 09:10:04;;;;;;;13.38;2.67;;;;;;;;;;5081888;28;20078;-65
2021/12/09 09:12:31;;;;;;;15.82;2.72;;;;;;;;;;5087947;28;20097;-65
2021/12/09 09:14:57;;;;;;;11.93;2.33;;;;;;;;;;5083403;28;20457;-65
2021/12/09 09:17:23;;;;;;;8.35;2.50;;;;;;;;;;5083377;28;20404;-65
2021/12/09 09:19:50;;;;;;;7.43;2.55;;;;;;;;;;5092226;28;20039;-65
2021/12/09 09:22:16;;;;;;;10.25;2.63;;;;;;;;;;5092466;28;20035;-65
2021/12/09 09:24:42;;;;;;;11.57;2.40;;;;;;;;;;5091875;28;20110;-65
2021/12/09 09:27:08;;;;;;;8.88;2.55;;;;;;;;;;5091721;28;20028;-65
2021/12/09 09:29:35;;;;;;;9.07;2.65;;;;;;;;;;5091557;28;20034;-65
2021/12/09 09:32:01;;;;;;;9.90;3.17;;;;;;;;;;5092373;28;20035;-65
2021/12/09 09:34:27;;;;;;;12.30;2.20;;;;;;;;;;5091844;28;20165;-65
2021/12/09 09:36:54;;;;;;;10.48;2.40;;;;;;;;;;5091808;28;20040;-65
2021/12/09 09:39:22;;;;;;;8.07;2.22;;;;;;;;;;5091827;28;20085;-65
2021/12/09 09:41:58;;;;;;;12.10;3.10;;;;;;;;;;5091519;28;20032;-65
2021/12/09 09:44:33;;;;;;;9.18;2.42;;;;;;;;;;5092040;28;20044;-65
2021/12/09 09:47:00;;;;;;;12.65;2.65;;;;;;;;;;5091883;28;20032;-65
2021/12/09 09:49:28;;;;;;;8.60;2.78;;;;;;;;;;5091925;28;20024;-65
2021/12/09 09:51:56;;;;;;;16.60;3.85;;;;;;;;;;5091731;28;20063;-65
2021/12/09 09:54:22;;;;;;;12.88;2.88;;;;;;;;;;5091676;28;20024;-65
2021/12/09 09:56:49;;;;;;;5.82;3.25;;;;;;;;;;5091421;28;20028;-65
2021/12/09 09:59:17;;;;;;;8.43;2.50;;;;;;;;;;5091804;28;20020;-65
2021/12/09 10:01:45;;;;;;;10.65;2.75;;;;;;;;;;5091220;28;20044;-65
2021/12/09 10:04:21;;;;;;;16.02;3.25;;;;;;;;;;5092030;28;20050;-65
2021/12/09 10:06:48;;;;;;;6.03;2.65;;;;;;;;;;5091410;28;20032;-65
2021/12/09 10:09:15;;;;;;;13.45;3.33;;;;;;;;;;5091625;28;20080;-65
2021/12/09 10:11:41;;;;;;;14.85;2.83;;;;;;;;;;5091771;28;20504;-65
2021/12/09 10:14:10;;;;;;;15.63;3.10;;;;;;;;;;5096091;28;20019;-65
2021/12/09 10:16:38;;;;;;;10.27;3.17;;;;;;;;;;5095389;28;20060;-65
2021/12/09 10:19:12;;;;;;;10.02;2.60;;;;;;;;;;5095878;28;20048;-65
2021/12/09 10:21:38;;;;;;;18.17;3.47;;;;;;;;;;5095268;28;20047;-65
2021/12/09 10:24:06;;;;;;;8.13;2.28;;;;;;;;;;5095326;28;20499;-66
2021/12/09 10:26:51;;;;;;;9.80;2.80;;;;;;;;;;5095099;28;20043;-65
2021/12/09 10:29:25;;;;;;;10.35;2.35;;;;;;;;;;5095755;28;20123;-65
2021/12/09 10:31:56;;;;;;;10.73;2.15;;;;;;;;;;5095098;28;20024;-65
2021/12/09 10:34:40;;;;;;;10.80;2.50;;;;;;;;;;5095408;28;20170;-65
2021/12/09 10:37:20;;;;;;;9.00;2.92;;;;;;;;;;5095105;28;20527;-65
2021/12/09 10:39:51;;;;;;;19.85;2.85;;;;;;;;;;5095446;28;20621;-65
2021/12/09 10:42:17;;;;;;;7.75;2.00;;;;;;;;;;5095312;28;20551;-65
2021/12/09 10:44:48;;;;;;;8.18;2.53;;;;;;;;;;5094989;28;20074;-65
2021/12/09 10:47:32;;;;;;;11.57;3.40;;;;;;;;;;5095091;28;20043;-65
2021/12/09 10:50:46;;;;;;;15.35;3.22;;;;;;;;;;5095300;28;20055;-65
2021/12/09 10:52:53;;;;;;;20.95;2.90;;;;;;;;;;5088642;28;20076;-65
2021/12/09 10:55:24;;;;;;;10.05;2.30;;;;;;;;;;5095166;28;20024;-65
2021/12/09 10:57:54;;;;;;;17.83;3.05;;;;;;;;;;5094647;28;20565;-65
2021/12/09 11:00:20;;;;;;;9.52;2.85;;;;;;;;;;5094945;28;20032;-65
2021/12/09 11:02:56;;;;;;;8.52;2.58;;;;;;;;;;5094645;28;20025;-65
2021/12/09 11:05:23;;;;;;;11.82;2.75;;;;;;;;;;5094780;28;20047;-65
2021/12/09 11:07:49;;;;;;;5.78;1.92;;;;;;;;;;5094054;28;20031;-65
2021/12/09 11:10:17;;;;;;;8.95;2.55;;;;;;;;;;5094924;28;20039;-65
2021/12/09 11:12:57;;;;;;;12.55;2.45;;;;;;;;;;5094223;28;20063;-65
2021/12/09 11:15:43;;;;;;;11.55;2.92;;;;;;;;;;5094784;28;20113;-65
2021/12/09 11:18:35;;;;;;;10.85;3.15;;;;;;;;;;5094683;28;20111;-65
2021/12/09 11:21:03;;;;;;;11.15;2.25;;;;;;;;;;5094538;28;20407;-65
2021/12/09 11:23:34;;;;;;;10.48;2.10;;;;;;;;;;5093506;28;20040;-65
2021/12/09 11:26:19;;;;;;;7.93;2.05;;;;;;;;;;5094183;28;20089;-65
2021/12/09 11:28:52;;;;;;;7.53;2.15;;;;;;;;;;5091473;28;20114;-65
2021/12/09 11:31:19;;;;;;;7.50;1.80;;;;;;;;;;5086750;28;20189;-71
2021/12/09 11:33:46;;;;;;;5.93;2.88;;;;;;;;;;5084161;28;20013;-65
2021/12/09 11:36:17;;;;;;;4.03;1.60;;;;;;;;;;5087164;28;20040;-65
2021/12/09 11:39:08;;;;;;;7.32;2.08;;;;;;;;;;5081060;28;20111;-65
2021/12/09 11:41:37;;;;;;;6.60;1.85;;;;;;;;;;5081079;28;20070;-65
2021/12/09 11:44:03;;;;;;;6.25;1.55;;;;;;;;;;5084815;28;20790;-65
2021/12/09 11:46:29;;;;;;;3.80;1.30;;;;;;;;;;5085808;28;20028;-65
2021/12/09 11:48:55;;;;;;;4.72;1.50;;;;;;;;;;5085043;28;20028;-65
2021/12/09 11:51:24;;;;;;;5.22;1.65;;;;;;;;;;5092485;28;20012;-65
2021/12/09 11:53:55;;;;;;;3.67;1.50;;;;;;;;;;5080336;28;20028;-65
2021/12/09 12:08:02;;;;;;;6.15;2.03;;;;;;;;;;5056070;28;20468;-65
2021/12/09 12:13:35;;;;;;;6.50;2.00;;;;;;;;;;5086882;28;20031;-65
2021/12/09 12:16:23;;;;;;;4.90;2.40;;;;;;;;;;5080595;28;20032;-65
2021/12/09 12:19:00;;;;;;;6.22;2.42;;;;;;;;;;5060205;28;20040;-65
2021/12/09 12:24:33;;;;;;;4.57;2.17;;;;;;;;;;5083172;28;20202;-65
2021/12/09 12:32:18;;;;;;;3.70;1.67;;;;;;;;;;5083632;28;20028;-64
2021/12/09 12:37:47;;;;;;;3.53;1.90;;;;;;;;;;5090097;28;20055;-64
2021/12/09 12:40:16;;;;;;;4.28;1.52;;;;;;;;;;5078981;28;20415;-65
2021/12/09 12:42:54;;;;;;;4.22;1.70;;;;;;;;;;5082945;28;20024;-64
2021/12/09 12:48:31;;;;;;;3.78;1.80;;;;;;;;;;5077104;28;20077;-65
2021/12/09 12:51:13;;;;;;;2.10;1.77;;;;;;;;;;5076834;28;20027;-64
2021/12/09 12:53:42;;;;;;;4.18;1.40;;;;;;;;;;5080924;28;20060;-64
2021/12/09 12:56:20;;;;;;;3.38;1.73;;;;;;;;;;5061285;28;20020;-64
2021/12/09 12:59:16;;;;;;;4.65;1.75;;;;;;;;;;5081664;28;20032;-65
2021/12/09 13:01:50;;;;;;;4.60;1.67;;;;;;;;;;5081490;28;20089;-65
2021/12/09 13:07:29;;;;;;;2.67;1.30;;;;;;;;;;5078740;28;20039;-64
2021/12/09 13:10:19;;;;;;;4.60;1.50;;;;;;;;;;5074262;28;20025;-64
2021/12/09 13:12:55;;;;;;;2.05;1.40;;;;;;;;;;5091104;28;20032;-64
2021/12/09 13:15:26;;;;;;;1.90;1.25;;;;;;;;;;5074988;28;20380;-64
2021/12/09 13:18:05;;;;;;;2.55;1.20;;;;;;;;;;5085609;28;20042;-65
2021/12/09 13:20:38;;;;;;;2.42;1.30;;;;;;;;;;5085263;28;20024;-64
2021/12/09 13:23:27;;;;;;;3.70;1.55;;;;;;;;;;5087196;28;20044;-64
2021/12/09 13:26:13;;;;;;;4.43;1.65;;;;;;;;;;5081829;28;20507;-64
2021/12/09 13:28:52;;;;;;;3.30;1.20;;;;;;;;;;5078010;28;20496;-65
2021/12/09 13:31:37;;;;;;;2.78;1.50;;;;;;;;;;5085801;28;20552;-64
2021/12/09 13:34:17;;;;;;;2.45;1.65;;;;;;;;;;5062715;28;20032;-64
2021/12/09 13:40:04;;;;;;;6.10;1.70;;;;;;;;;;5084055;28;20453;-65
2021/12/09 13:47:52;;;;;;;1.65;1.05;;;;;;;;;;5084594;28;21580;-64
2021/12/09 13:50:52;;;;;;;1.73;1.10;;;;;;;;;;5084063;28;20055;-64
2021/12/09 13:56:06;;;;;;;1.38;0.90;;;;;;;;;;5072868;28;20089;-64
2021/12/09 13:58:32;;;;;;;1.75;0.90;;;;;;;;;;5083374;28;20059;-65
2021/12/09 14:00:58;;;;;;;1.77;1.15;;;;;;;;;;5075687;28;20031;-64
2021/12/09 14:03:26;;;;;;;0.90;0.90;;;;;;;;;;5082388;28;20032;-64
2021/12/09 14:06:04;;;;;;;2.53;1.50;;;;;;;;;;5081450;28;20028;-64
2021/12/09 14:08:34;;;;;;;2.85;1.48;;;;;;;;;;5083105;28;20028;-64
2021/12/09 14:11:04;;;;;;;2.00;1.20;;;;;;;;;;5085943;28;20032;-65
2021/12/09 14:13:36;;;;;;;3.30;1.65;;;;;;;;;;5081976;28;20691;-65
2021/12/09 14:16:14;;;;;;;2.30;1.42;;;;;;;;;;5073119;28;20046;-65
2021/12/09 14:19:58;;;;;;;3.88;1.92;;;;;;;;;;5081880;28;20047;-65
2021/12/09 14:21:28;;;;;;;2.47;1.50;;;;;;;;;;5078089;28;20119;-65
2021/12/09 14:24:09;;;;;;;4.35;1.42;;;;;;;;;;5082772;28;20118;-65
2021/12/09 14:26:35;;;;;;;1.05;0.93;;;;;;;;;;5083966;28;20028;-65
2021/12/09 14:29:03;;;;;;;3.28;1.40;;;;;;;;;;5082705;28;20416;-64
2021/12/09 14:31:30;;;;;;;2.40;1.08;;;;;;;;;;5085557;28;20074;-64
2021/12/09 14:34:01;;;;;;;1.95;1.10;;;;;;;;;;5085207;28;20034;-64
2021/12/09 14:36:28;;;;;;;1.25;0.98;;;;;;;;;;5073269;28;20146;-64
2021/12/09 14:39:00;;;;;;;1.63;1.10;;;;;;;;;;5082657;28;20032;-64
2021/12/09 14:41:29;;;;;;;1.77;1.00;;;;;;;;;;5082122;28;20111;-64
2021/12/09 14:43:55;;;;;;;1.65;1.20;;;;;;;;;;5085219;28;20103;-63
2021/12/09 14:46:26;;;;;;;3.95;1.30;;;;;;;;;;5073794;28;20052;-63
2021/12/09 14:48:52;;;;;;;2.55;0.95;;;;;;;;;;5082480;28;20032;-63
2021/12/09 14:51:18;;;;;;;1.55;1.05;;;;;;;;;;5084755;28;20055;-63
2021/12/09 14:53:46;;;;;;;0.70;0.70;;;;;;;;;;5084809;28;20510;-63
2021/12/09 14:56:30;;;;;;;2.63;0.90;;;;;;;;;;5085371;28;20545;-63
2021/12/09 14:59:15;;;;;;;1.15;0.70;;;;;;;;;;5088702;28;20024;-63
2021/12/09 15:01:42;;;;;;;1.20;0.80;;;;;;;;;;5089236;28;20240;-63
2021/12/09 15:04:17;;;;;;;0.82;0.68;;;;;;;;;;5088003;28;20069;-63
2021/12/09 15:06:54;;;;;;;1.42;0.80;;;;;;;;;;5091327;28;20028;-63
2021/12/09 15:09:20;;;;;;;0.95;0.65;;;;;;;;;;5092150;28;20063;-63
2021/12/09 15:11:53;;;;;;;1.45;0.80;;;;;;;;;;5090199;28;20103;-63
2021/12/09 15:14:19;;;;;;;;;;;;;;;;;;5088062;28;20024;-63
2021/12/09 15:16:46;;;;;;;1.38;0.80;;;;;;;;;;5083081;28;20263;-63
2021/12/09 15:19:21;;;;;;;4.10;1.20;;;;;;;;;;5088426;28;20480;-63
2021/12/09 15:22:10;;;;;;;1.20;0.95;;;;;;;;;;5092027;28;20158;-63
2021/12/09 15:24:36;;;;;;;2.72;1.00;;;;;;;;;;5080609;28;20043;-63
2021/12/09 15:27:03;;;;;;;1.42;1.00;;;;;;;;;;5082883;28;20039;-63
2021/12/09 15:29:29;;;;;;;1.73;0.80;;;;;;;;;;5083547;28;20109;-63
2021/12/09 15:31:58;;;;;;;2.03;1.13;;;;;;;;;;5079228;28;20024;-63
2021/12/09 15:34:26;;;;;;;2.22;1.00;;;;;;;;;;5087632;28;20035;-63